TimeMDT,TemperatureF,Dew PointF,Humidity,Sea Level PressureIn,VisibilityMPH,Wind Direction,Wind SpeedMPH,Gust SpeedMPH,PrecipitationIn,Events,Conditions,WindDirDegrees,DateUTC
12:56 AM,62.1,52.0,70,29.97,10.0,ENE,4.6,-,N/A,,Overcast,60,2013-08-02 06:56:00
1:56 AM,59.0,52.0,78,29.99,10.0,Calm,Calm,-,N/A,,Partly Cloudy,0,2013-08-02 07:56:00
2:56 AM,57.9,52.0,81,29.94,10.0,ENE,6.9,-,N/A,,Scattered Clouds,70,2013-08-02 08:56:00
3:56 AM,55.9,52.0,87,29.95,10.0,East,5.8,-,N/A,,Mostly Cloudy,100,2013-08-02 09:56:00
4:56 AM,57.0,52.0,83,29.97,10.0,ESE,4.6,-,N/A,,Overcast,120,2013-08-02 10:56:00
5:56 AM,57.9,52.0,81,29.99,10.0,East,3.5,-,N/A,,Overcast,100,2013-08-02 11:56:00
6:56 AM,57.9,52.0,81,30.00,10.0,ENE,5.8,-,N/A,,Overcast,70,2013-08-02 12:56:00
7:56 AM,59.0,52.0,78,30.01,10.0,ENE,3.5,-,N/A,,Overcast,60,2013-08-02 13:56:00
8:56 AM,63.0,53.1,70,29.99,10.0,East,6.9,-,N/A,,Partly Cloudy,100,2013-08-02 14:56:00
9:56 AM,62.1,53.1,72,30.04,10.0,SE,3.5,-,N/A,,Overcast,130,2013-08-02 15:56:00
10:56 AM,64.0,54.0,70,30.01,10.0,ESE,9.2,-,N/A,,Overcast,120,2013-08-02 16:56:00
11:56 AM,70.0,54.0,57,29.99,10.0,SE,11.5,-,N/A,,Partly Cloudy,130,2013-08-02 17:56:00
12:56 PM,71.1,53.1,53,30.00,10.0,ESE,12.7,-,N/A,,Overcast,110,2013-08-02 18:56:00
1:56 PM,69.1,52.0,54,30.04,10.0,ESE,8.1,-,N/A,,Overcast,110,2013-08-02 19:56:00
2:56 PM,71.1,52.0,51,30.03,10.0,ESE,8.1,-,N/A,,Overcast,110,2013-08-02 20:56:00
3:56 PM,71.1,51.1,49,30.02,10.0,East,8.1,-,N/A,,Overcast,100,2013-08-02 21:56:00
4:56 PM,70.0,51.1,51,30.01,10.0,ESE,8.1,-,N/A,,Mostly Cloudy,110,2013-08-02 22:56:00
5:56 PM,71.1,52.0,51,30.01,10.0,ESE,10.4,-,N/A,,Overcast,110,2013-08-02 23:56:00
6:56 PM,69.1,51.1,53,30.02,10.0,East,9.2,-,N/A,,Overcast,100,2013-08-03 00:56:00
7:56 PM,64.9,52.0,63,30.04,10.0,ESE,6.9,-,N/A,,Mostly Cloudy,120,2013-08-03 01:56:00
8:56 PM,60.1,53.1,78,30.06,10.0,East,4.6,-,N/A,,Partly Cloudy,100,2013-08-03 02:56:00
9:56 PM,59.0,51.1,75,30.08,10.0,East,8.1,-,N/A,,Scattered Clouds,80,2013-08-03 03:56:00
10:56 PM,57.9,50.0,75,30.11,10.0,East,5.8,-,N/A,,Overcast,90,2013-08-03 04:56:00
11:56 PM,60.1,51.1,72,30.12,10.0,ENE,3.5,-,N/A,,Overcast,60,2013-08-03 05:56:00